createdAt,value
2023-03-11T00:00:00.469Z,63.00
2023-03-11T00:02:30.886Z,62.85
2023-03-11T00:05:01.458Z,62.85
2023-03-11T00:07:31.983Z,63.00
2023-03-11T00:10:03.226Z,63.15
2023-03-11T00:12:33.846Z,62.88
2023-03-11T00:15:04.775Z,62.94
2023-03-11T00:17:35.222Z,62.98
2023-03-11T00:20:06.983Z,62.93
2023-03-11T00:22:37.443Z,62.70
2023-03-11T00:25:08.816Z,62.72
2023-03-11T00:27:39.694Z,62.69
2023-03-11T00:30:12.911Z,62.34
2023-03-11T00:32:43.478Z,62.13
2023-03-11T00:35:16.910Z,61.84
2023-03-11T00:37:49.549Z,61.78
2023-03-11T00:40:21.886Z,61.86
2023-03-11T00:42:53.009Z,61.92
2023-03-11T00:45:23.959Z,61.43
2023-03-11T00:47:55.447Z,61.46
2023-03-11T00:50:28.817Z,61.31
2023-03-11T00:53:00.979Z,61.25
2023-03-11T00:55:33.438Z,61.06
2023-03-11T00:58:08.375Z,61.21
2023-03-11T01:00:45.052Z,60.84
2023-03-11T01:03:15.782Z,61.24
2023-03-11T01:05:48.449Z,61.07
2023-03-11T01:08:18.976Z,60.93
2023-03-11T01:10:49.514Z,61.36
2023-03-11T01:13:20.258Z,61.50
2023-03-11T01:15:50.899Z,61.56
2023-03-11T01:18:21.927Z,61.89
2023-03-11T01:20:52.449Z,62.19
2023-03-11T01:23:23.907Z,62.05
2023-03-11T01:25:54.357Z,63.29
2023-03-11T01:28:24.794Z,63.61
2023-03-11T01:30:55.250Z,63.36
2023-03-11T01:33:25.720Z,63.87
2023-03-11T01:35:56.565Z,64.02
2023-03-11T01:38:30.380Z,63.93
2023-03-11T01:41:00.822Z,63.84
2023-03-11T01:43:48.867Z,63.72
2023-03-11T01:46:24.230Z,63.55
2023-03-11T01:48:56.747Z,63.49
2023-03-11T01:51:33.214Z,63.86
2023-03-11T01:54:08.096Z,63.86
2023-03-11T01:56:40.430Z,64.08
2023-03-11T01:59:13.459Z,64.32
2023-03-11T02:01:51.028Z,64.06
2023-03-11T02:04:22.723Z,64.13
2023-03-11T02:06:54.236Z,64.36
2023-03-11T02:09:27.121Z,64.33
2023-03-11T02:12:50.695Z,64.50
2023-03-11T02:16:16.500Z,64.32
2023-03-11T02:18:47.596Z,64.40
2023-03-11T02:21:26.469Z,64.45
2023-03-11T02:24:06.798Z,64.04
2023-03-11T02:26:42.604Z,64.38
2023-03-11T02:29:14.246Z,64.16
2023-03-11T02:31:46.986Z,64.43
2023-03-11T02:34:24.525Z,63.97
2023-03-11T02:36:55.346Z,63.87
2023-03-11T02:39:34.060Z,64.01
2023-03-11T02:42:08.271Z,63.80
2023-03-11T02:44:40.705Z,63.74
2023-03-11T02:47:11.526Z,63.76
2023-03-11T02:49:42.596Z,63.91
2023-03-11T02:52:13.063Z,63.88
2023-03-11T02:54:43.689Z,63.71
2023-03-11T02:57:14.171Z,63.48
2023-03-11T02:59:44.817Z,63.56
2023-03-11T03:02:15.588Z,63.58
2023-03-11T03:04:46.357Z,63.63
2023-03-11T03:07:17.370Z,63.19
2023-03-11T03:09:47.862Z,61.96
2023-03-11T03:12:18.313Z,60.96
2023-03-11T03:14:48.942Z,59.91
2023-03-11T03:17:20.423Z,59.38
2023-03-11T03:19:51.330Z,58.70
2023-03-11T03:22:22.199Z,58.92
2023-03-11T03:24:53.114Z,59.21
2023-03-11T03:27:23.942Z,58.82
2023-03-11T03:29:55.063Z,58.99
2023-03-11T03:32:25.880Z,59.20
2023-03-11T03:34:59.136Z,58.98
2023-03-11T03:37:38.885Z,58.78
2023-03-11T03:40:12.361Z,58.14
2023-03-11T03:42:43.303Z,57.87
2023-03-11T03:45:15.122Z,57.86
2023-03-11T03:47:45.812Z,57.97
2023-03-11T03:50:16.713Z,57.36
2023-03-11T03:52:48.911Z,57.64
2023-03-11T03:55:20.215Z,57.30
2023-03-11T03:57:51.303Z,57.94
2023-03-11T04:00:23.931Z,58.12
2023-03-11T04:02:57.898Z,58.32
2023-03-11T04:05:34.539Z,58.59
2023-03-11T04:08:30.728Z,58.06
2023-03-11T04:11:01.507Z,58.22
2023-03-11T04:13:33.648Z,58.38
2023-03-11T04:16:05.885Z,58.34
2023-03-11T04:18:35.325Z,58.34
2023-03-11T04:21:09.525Z,58.48
2023-03-11T04:23:40.652Z,58.03
2023-03-11T04:26:11.535Z,58.63
2023-03-11T04:28:42.530Z,58.70
2023-03-11T04:31:13.369Z,58.87
2023-03-11T04:33:44.644Z,59.49
2023-03-11T04:36:15.638Z,59.64
2023-03-11T04:38:46.877Z,59.62
2023-03-11T04:41:17.619Z,60.02
2023-03-11T04:43:48.536Z,60.44
2023-03-11T04:46:19.372Z,60.41
2023-03-11T04:48:50.040Z,60.51
2023-03-11T04:51:21.387Z,61.03
2023-03-11T04:53:52.022Z,61.07
2023-03-11T04:56:23.008Z,61.16
2023-03-11T04:58:53.955Z,61.61
2023-03-11T05:01:25.069Z,62.27
2023-03-11T05:03:55.768Z,62.75
2023-03-11T05:06:26.308Z,63.04
2023-03-11T05:08:57.277Z,63.45
2023-03-11T05:11:28.261Z,62.96
2023-03-11T05:13:58.856Z,63.12
2023-03-11T05:16:30.109Z,63.34
2023-03-11T05:19:00.861Z,63.58
2023-03-11T05:21:31.272Z,63.83
2023-03-11T05:24:01.823Z,63.97
2023-03-11T05:26:32.233Z,64.10
2023-03-11T05:29:03.226Z,64.00
2023-03-11T05:31:33.860Z,64.26
2023-03-11T05:34:05.050Z,64.23
2023-03-11T05:36:35.588Z,64.28
2023-03-11T05:39:06.777Z,64.63
2023-03-11T05:41:37.829Z,64.44
2023-03-11T05:44:14.788Z,64.39
2023-03-11T05:46:45.812Z,64.31
2023-03-11T05:49:16.379Z,64.60
2023-03-11T05:51:46.804Z,64.62
2023-03-11T05:54:17.749Z,64.92
2023-03-11T05:56:50.566Z,64.79
2023-03-11T05:59:21.533Z,64.80
2023-03-11T06:01:57.138Z,65.22
2023-03-11T06:04:27.819Z,65.47
2023-03-11T06:06:58.539Z,65.40
2023-03-11T06:09:31.424Z,65.58
2023-03-11T06:12:02.414Z,65.71
2023-03-11T06:14:38.777Z,65.94
2023-03-11T06:17:09.616Z,66.33
2023-03-11T06:19:40.140Z,66.51
2023-03-11T06:22:12.329Z,66.50
2023-03-11T06:24:42.944Z,66.78
2023-03-11T06:27:13.803Z,66.87
2023-03-11T06:29:44.659Z,67.30
2023-03-11T06:32:15.548Z,67.30
2023-03-11T06:34:46.107Z,67.58
2023-03-11T06:37:16.586Z,67.71
2023-03-11T06:39:47.043Z,67.95
2023-03-11T06:42:20.276Z,68.21
2023-03-11T06:44:51.497Z,68.22
2023-03-11T06:47:22.123Z,68.46
2023-03-11T06:49:54.845Z,68.59
2023-03-11T06:52:23.786Z,68.88
2023-03-11T06:54:54.361Z,69.21
2023-03-11T06:57:24.882Z,69.57
2023-03-11T06:59:56.049Z,70.23
2023-03-11T07:02:26.718Z,70.57
2023-03-11T07:04:57.398Z,70.76
2023-03-11T07:07:27.812Z,70.93
2023-03-11T07:09:59.235Z,71.38
2023-03-11T07:12:29.974Z,71.92
2023-03-11T07:15:01.436Z,72.26
2023-03-11T07:17:33.474Z,72.65
2023-03-11T07:20:04.384Z,72.92
2023-03-11T07:22:34.833Z,73.12
2023-03-11T07:25:06.001Z,73.26
2023-03-11T07:27:36.427Z,73.30
2023-03-11T07:30:08.482Z,73.75
2023-03-11T07:32:39.038Z,74.40
2023-03-11T07:35:11.900Z,74.81
2023-03-11T07:37:42.276Z,75.04
2023-03-11T07:40:15.027Z,75.25
2023-03-11T07:42:45.456Z,75.38
2023-03-11T07:45:16.377Z,75.44
2023-03-11T07:47:46.940Z,75.62
2023-03-11T07:50:18.258Z,76.19
2023-03-11T07:52:48.884Z,77.34
2023-03-11T07:55:19.953Z,77.91
2023-03-11T07:57:51.778Z,77.86
2023-03-11T08:00:23.675Z,77.79
2023-03-11T08:02:54.515Z,78.04
2023-03-11T08:05:25.184Z,78.36
2023-03-11T08:07:55.653Z,78.50
2023-03-11T08:10:26.188Z,78.57
2023-03-11T08:12:56.608Z,78.67
2023-03-11T08:15:27.144Z,78.74
2023-03-11T08:17:57.625Z,78.59
2023-03-11T08:20:28.065Z,78.46
2023-03-11T08:22:58.703Z,78.33
2023-03-11T08:25:29.722Z,78.49
2023-03-11T08:28:00.176Z,78.37
2023-03-11T08:30:31.398Z,78.17
2023-03-11T08:33:01.920Z,78.08
2023-03-11T08:35:32.760Z,77.97
2023-03-11T08:38:03.380Z,78.01
2023-03-11T08:40:34.019Z,78.19
2023-03-11T08:43:04.492Z,78.27
2023-03-11T08:45:35.257Z,78.44
2023-03-11T08:48:05.942Z,78.49
2023-03-11T08:50:47.440Z,78.11
2023-03-11T08:53:24.279Z,77.94
2023-03-11T08:55:55.277Z,77.90
2023-03-11T08:58:25.692Z,77.77
2023-03-11T09:00:56.269Z,77.90
2023-03-11T09:03:27.570Z,78.07
2023-03-11T09:06:01.911Z,77.89
2023-03-11T09:08:32.934Z,78.23
2023-03-11T09:11:03.792Z,78.17
2023-03-11T09:13:34.225Z,78.31
2023-03-11T09:16:06.035Z,78.24
2023-03-11T09:18:36.542Z,78.29
2023-03-11T09:21:07.743Z,78.32
2023-03-11T09:23:38.393Z,78.22
2023-03-11T09:26:09.105Z,78.61
2023-03-11T09:28:39.638Z,78.68
2023-03-11T09:31:10.334Z,78.37
2023-03-11T09:33:42.887Z,77.74
2023-03-11T09:36:17.280Z,77.24
2023-03-11T09:38:48.228Z,77.37
2023-03-11T09:41:29.600Z,77.01
2023-03-11T09:44:12.413Z,76.66
2023-03-11T09:51:08.365Z,76.69
2023-03-11T09:58:01.478Z,77.02
2023-03-11T10:00:33.015Z,77.19
2023-03-11T10:03:07.867Z,77.31
2023-03-11T10:05:39.504Z,77.29
2023-03-11T10:08:22.724Z,77.35
2023-03-11T10:11:00.415Z,77.33
2023-03-11T10:13:36.816Z,77.15
2023-03-11T10:16:15.629Z,76.81
2023-03-11T10:18:51.060Z,76.46
2023-03-11T10:21:32.847Z,76.19
2023-03-11T10:24:34.925Z,75.80
2023-03-11T10:27:13.526Z,75.49
2023-03-11T10:29:51.800Z,75.13
2023-03-11T10:32:30.973Z,75.20
2023-03-11T10:35:06.334Z,74.80
2023-03-11T10:37:49.476Z,74.55
2023-03-11T10:40:27.339Z,73.89
2023-03-11T10:43:02.841Z,73.08
2023-03-11T10:45:38.955Z,72.09
2023-03-11T10:48:14.177Z,71.94
2023-03-11T10:50:52.003Z,71.97
2023-03-11T10:53:22.845Z,71.58
2023-03-11T10:55:55.210Z,71.64
2023-03-11T10:58:27.034Z,71.46
2023-03-11T11:01:08.837Z,71.64
2023-03-11T11:03:44.493Z,71.73
2023-03-11T11:06:26.376Z,71.45
2023-03-11T11:09:19.807Z,70.15
2023-03-11T11:12:05.780Z,69.58
2023-03-11T11:14:50.125Z,68.55
2023-03-11T11:17:25.477Z,68.02
2023-03-11T11:19:58.167Z,67.87
2023-03-11T11:22:32.282Z,68.24
2023-03-11T11:25:02.727Z,68.05
2023-03-11T11:27:34.456Z,68.02
2023-03-11T11:30:18.888Z,68.33
2023-03-11T11:32:51.543Z,68.18
2023-03-11T11:35:23.597Z,67.91
2023-03-11T11:37:56.547Z,67.65
2023-03-11T11:40:32.710Z,67.32
2023-03-11T11:43:07.370Z,67.36
2023-03-11T11:45:41.650Z,67.47
2023-03-11T11:48:19.288Z,67.91
2023-03-11T11:50:55.840Z,67.71
2023-03-11T11:53:38.222Z,67.63
2023-03-11T11:56:08.858Z,66.77
2023-03-11T11:58:41.492Z,66.17
2023-03-11T12:01:19.885Z,65.70
2023-03-11T12:04:26.324Z,64.91
2023-03-11T12:07:11.696Z,64.82
2023-03-11T12:09:53.370Z,64.02
2023-03-11T12:12:33.959Z,63.77
2023-03-11T12:15:14.311Z,63.65
2023-03-11T12:17:48.662Z,63.37
2023-03-11T12:20:27.885Z,63.38
2023-03-11T12:23:21.639Z,62.83
2023-03-11T12:26:07.022Z,62.42
2023-03-11T12:28:46.678Z,62.11
2023-03-11T12:31:17.513Z,61.59
2023-03-11T12:33:51.263Z,61.08
2023-03-11T12:36:30.019Z,59.73
2023-03-11T12:38:59.438Z,59.51
2023-03-11T12:41:33.683Z,59.03
2023-03-11T12:44:22.587Z,59.17
2023-03-11T12:47:23.560Z,59.31
2023-03-11T12:49:56.214Z,59.59
2023-03-11T12:52:31.278Z,59.82
2023-03-11T12:55:38.748Z,59.59
2023-03-11T12:58:35.705Z,60.07
2023-03-11T13:01:19.611Z,62.64
2023-03-11T13:04:03.705Z,62.93
2023-03-11T13:07:00.584Z,62.79
2023-03-11T13:09:31.689Z,63.23
2023-03-11T13:12:02.426Z,62.61
2023-03-11T13:14:34.482Z,62.21
2023-03-11T13:17:26.726Z,62.07
2023-03-11T13:19:58.434Z,61.31
2023-03-11T13:23:21.151Z,61.15
2023-03-11T13:26:20.133Z,60.94
2023-03-11T13:29:05.528Z,60.83
2023-03-11T13:31:50.945Z,60.38
2023-03-11T13:34:30.434Z,59.80
2023-03-11T13:37:20.754Z,59.04
2023-03-11T13:40:04.061Z,59.94
2023-03-11T13:42:38.038Z,60.76
2023-03-11T13:45:17.310Z,60.95
2023-03-11T13:47:49.835Z,60.94
2023-03-11T13:50:27.789Z,61.13
2023-03-11T13:53:00.672Z,60.13
2023-03-11T14:03:47.861Z,58.53
2023-03-11T14:06:20.782Z,58.46
2023-03-11T14:08:57.886Z,57.61
2023-03-11T14:11:30.218Z,57.19
2023-03-11T14:14:01.982Z,57.27
2023-03-11T14:16:43.926Z,57.20
2023-03-11T14:19:19.136Z,57.25
2023-03-11T14:21:51.691Z,56.74
2023-03-11T14:24:26.230Z,56.59
2023-03-11T14:26:59.065Z,56.16
2023-03-11T14:29:33.914Z,56.23
2023-03-11T14:32:25.010Z,55.78
2023-03-11T14:34:55.844Z,56.37
2023-03-11T14:37:34.454Z,56.36
2023-03-11T14:40:06.137Z,56.64
2023-03-11T14:42:39.358Z,56.57
2023-03-11T14:45:16.818Z,56.34
2023-03-11T14:47:52.148Z,56.03
2023-03-11T14:50:25.925Z,56.50
2023-03-11T14:53:04.344Z,56.67
2023-03-11T14:55:40.504Z,56.72
2023-03-11T14:58:16.689Z,56.68
2023-03-11T15:00:51.471Z,56.90
2023-03-11T15:03:26.900Z,56.82
2023-03-11T15:05:59.865Z,56.72
2023-03-11T15:08:35.378Z,57.01
2023-03-11T15:11:19.841Z,56.89
2023-03-11T15:13:51.718Z,56.81
2023-03-11T15:16:31.552Z,56.62
2023-03-11T15:19:24.738Z,56.59
2023-03-11T15:21:58.548Z,55.97
2023-03-11T15:24:31.022Z,55.53
2023-03-11T15:27:02.578Z,55.34
2023-03-11T15:29:34.574Z,54.64
2023-03-11T15:32:38.601Z,54.43
2023-03-11T15:35:15.935Z,54.33
2023-03-11T15:37:48.507Z,54.73
2023-03-11T15:40:42.429Z,54.70
2023-03-11T15:43:28.033Z,54.80
2023-03-11T15:46:01.019Z,54.30
2023-03-11T15:48:31.810Z,53.75
2023-03-11T15:51:03.156Z,53.41
2023-03-11T15:53:33.880Z,53.22
2023-03-11T15:56:13.375Z,53.09
2023-03-11T15:58:43.980Z,52.71
2023-03-11T16:01:14.434Z,53.07
2023-03-11T16:03:45.307Z,53.90
2023-03-11T16:06:15.912Z,54.81
2023-03-11T16:08:46.587Z,54.54
2023-03-11T16:15:38.933Z,54.19
2023-03-11T16:18:10.947Z,54.14
2023-03-11T16:20:43.913Z,53.98
2023-03-11T16:23:19.517Z,54.19
2023-03-11T16:25:50.616Z,54.01
2023-03-11T16:28:21.120Z,54.03
2023-03-11T16:30:52.716Z,53.90
2023-03-11T16:33:23.257Z,53.92
2023-03-11T16:35:53.979Z,53.97
2023-03-11T16:38:24.995Z,53.91
2023-03-11T16:41:00.544Z,53.99
2023-03-11T16:43:32.925Z,53.93
2023-03-11T16:46:03.388Z,53.71
2023-03-11T16:48:34.285Z,53.78
2023-03-11T16:51:05.105Z,53.82
2023-03-11T16:53:35.527Z,53.65
2023-03-11T16:56:08.004Z,53.92
2023-03-11T16:58:37.356Z,54.08
2023-03-11T17:01:08.056Z,54.06
2023-03-11T17:03:42.888Z,53.93
2023-03-11T17:06:13.624Z,53.76
2023-03-11T17:08:49.182Z,53.82
2023-03-11T17:11:22.557Z,53.58
2023-03-11T17:13:55.381Z,53.53
2023-03-11T17:20:44.612Z,54.02
2023-03-11T17:23:15.012Z,54.26
2023-03-11T17:25:45.488Z,54.65
2023-03-11T17:28:16.016Z,55.08
2023-03-11T17:30:47.097Z,54.68
2023-03-11T17:33:17.633Z,54.59
2023-03-11T17:35:48.276Z,54.59
2023-03-11T17:38:18.822Z,54.58
2023-03-11T17:40:49.238Z,54.65
2023-03-11T17:43:19.699Z,54.98
2023-03-11T17:45:50.426Z,55.37
2023-03-11T17:48:21.399Z,56.08
2023-03-11T17:50:51.850Z,56.90
2023-03-11T17:53:22.462Z,57.79
2023-03-11T17:55:52.853Z,58.53
2023-03-11T17:58:23.265Z,59.27
2023-03-11T18:00:53.704Z,59.65
2023-03-11T18:07:39.425Z,61.14
2023-03-11T18:10:13.889Z,61.48
2023-03-11T18:12:47.917Z,62.26
2023-03-11T18:15:19.872Z,62.82
2023-03-11T18:17:50.941Z,64.18
2023-03-11T18:20:21.929Z,64.94
2023-03-11T18:22:52.997Z,65.04
2023-03-11T18:25:23.448Z,65.25
2023-03-11T18:27:54.036Z,65.13
2023-03-11T18:30:24.880Z,65.10
2023-03-11T18:32:55.407Z,65.16
2023-03-11T18:35:26.035Z,64.98
2023-03-11T18:37:56.562Z,65.01
2023-03-11T18:40:27.930Z,65.03
2023-03-11T18:42:58.541Z,65.01
2023-03-11T18:45:28.971Z,65.11
2023-03-11T18:47:59.483Z,65.10
2023-03-11T18:50:31.107Z,65.34
2023-03-11T18:53:01.772Z,65.43
2023-03-11T18:55:34.968Z,65.64
2023-03-11T18:58:09.381Z,65.57
2023-03-11T19:00:40.055Z,65.59
2023-03-11T19:03:13.451Z,65.89
2023-03-11T19:05:50.700Z,66.04
2023-03-11T19:08:21.382Z,66.32
2023-03-11T19:10:52.194Z,66.28
2023-03-11T19:13:22.621Z,66.26
2023-03-11T19:15:53.560Z,66.41
2023-03-11T19:18:25.431Z,66.47
2023-03-11T19:21:01.069Z,66.51
2023-03-11T19:23:32.735Z,66.65
2023-03-11T19:26:03.812Z,66.67
2023-03-11T19:28:34.705Z,66.67
2023-03-11T19:31:06.209Z,66.56
2023-03-11T19:33:36.902Z,66.71
2023-03-11T19:36:09.906Z,66.79
2023-03-11T19:38:40.462Z,66.93
2023-03-11T19:41:14.447Z,66.94
2023-03-11T19:43:45.363Z,66.98
2023-03-11T19:46:18.266Z,66.84
2023-03-11T19:48:49.103Z,66.93
2023-03-11T19:51:19.682Z,66.91
2023-03-11T19:53:50.152Z,67.20
2023-03-11T19:56:20.797Z,67.25
2023-03-11T19:58:52.241Z,67.22
2023-03-11T20:01:25.341Z,67.10
2023-03-11T20:03:55.751Z,67.13
2023-03-11T20:06:26.343Z,67.13
2023-03-11T20:08:57.244Z,67.01
2023-03-11T20:11:27.822Z,66.90
2023-03-11T20:13:58.542Z,66.67
2023-03-11T20:16:29.116Z,66.83
2023-03-11T20:18:59.737Z,66.77
2023-03-11T20:21:30.579Z,66.74
2023-03-11T20:24:01.449Z,66.80
2023-03-11T20:26:31.965Z,66.59
2023-03-11T20:29:02.455Z,66.49
2023-03-11T20:31:33.386Z,66.52
2023-03-11T20:34:04.060Z,66.53
2023-03-11T20:36:35.325Z,66.48
2023-03-11T20:39:09.980Z,66.20
2023-03-11T20:41:42.446Z,66.23
2023-03-11T20:44:15.076Z,66.18
2023-03-11T20:46:45.861Z,66.36
2023-03-11T20:49:16.504Z,66.44
2023-03-11T20:51:48.188Z,66.44
2023-03-11T20:54:19.082Z,66.45
2023-03-11T20:56:51.004Z,66.59
2023-03-11T20:59:21.602Z,66.58
2023-03-11T21:01:52.206Z,66.63
2023-03-11T21:04:24.459Z,66.70
2023-03-11T21:06:55.511Z,66.74
2023-03-11T21:09:26.272Z,66.53
2023-03-11T21:11:57.086Z,66.50
2023-03-11T21:14:27.731Z,66.49
2023-03-11T21:16:58.422Z,66.59
2023-03-11T21:19:29.226Z,66.65
2023-03-11T21:22:00.163Z,66.45
2023-03-11T21:24:30.802Z,66.63
2023-03-11T21:27:01.319Z,66.55
2023-03-11T21:29:31.854Z,66.71
2023-03-11T21:32:02.465Z,66.67
2023-03-11T21:34:33.115Z,66.72
2023-03-11T21:37:03.860Z,66.75
2023-03-11T21:39:34.377Z,66.90
2023-03-11T21:42:05.292Z,66.95
2023-03-11T21:44:35.858Z,66.94
2023-03-11T21:47:06.785Z,66.78
2023-03-11T21:49:38.786Z,66.94
2023-03-11T21:52:09.638Z,66.98
2023-03-11T21:54:40.108Z,66.88
2023-03-11T21:57:11.518Z,66.79
2023-03-11T21:59:42.162Z,66.83
2023-03-11T22:02:17.021Z,66.93
2023-03-11T22:04:48.560Z,66.95
2023-03-11T22:07:19.328Z,66.95
2023-03-11T22:09:51.945Z,66.88
2023-03-11T22:12:22.486Z,66.93
2023-03-11T22:14:53.033Z,66.85
2023-03-11T22:21:36.626Z,66.63
2023-03-11T22:24:08.230Z,66.70
2023-03-11T22:26:38.682Z,66.64
2023-03-11T22:37:57.473Z,66.40
2023-03-11T22:40:28.789Z,66.52
2023-03-11T22:42:59.217Z,66.40
2023-03-11T22:45:29.743Z,66.27
2023-03-11T22:48:00.993Z,66.38
2023-03-11T22:50:33.271Z,66.45
2023-03-11T22:53:03.710Z,66.81
2023-03-11T22:59:47.413Z,67.87
2023-03-11T23:06:38.613Z,67.80
2023-03-11T23:09:09.253Z,67.71
2023-03-11T23:11:39.678Z,67.81
2023-03-11T23:14:10.123Z,67.60
2023-03-11T23:21:14.358Z,67.43
2023-03-11T23:23:44.808Z,67.58
2023-03-11T23:26:16.201Z,67.46
2023-03-11T23:28:47.893Z,67.56
2023-03-11T23:31:19.413Z,67.69
2023-03-11T23:38:11.123Z,67.49
2023-03-11T23:40:43.744Z,67.40
2023-03-11T23:43:12.657Z,67.36
2023-03-11T23:45:45.331Z,67.42
2023-03-11T23:48:16.049Z,67.20
2023-03-11T23:50:49.167Z,67.29
2023-03-11T23:53:23.178Z,67.02
2023-03-11T23:55:53.746Z,66.92
2023-03-11T23:58:24.638Z,66.79
